sensor_id;sensor_type;location;lat;lon;timestamp;pressure;altitude;pressure_sealevel;temperature;humidity
41947;BME280;27638;42.184;24.848;2023-04-15T00:02:22;99107.44;;;13.75;98.76
41947;BME280;27638;42.184;24.848;2023-04-15T00:04:47;99102.13;;;13.75;98.61
41947;BME280;27638;42.184;24.848;2023-04-15T00:07:13;99099.41;;;13.62;99.51
41947;BME280;27638;42.184;24.848;2023-04-15T00:09:40;99094.09;;;13.62;99.87
41947;BME280;27638;42.184;24.848;2023-04-15T00:12:06;99090.59;;;13.61;100.00
41947;BME280;27638;42.184;24.848;2023-04-15T00:14:35;99099.47;;;13.75;100.00
41947;BME280;27638;42.184;24.848;2023-04-15T00:17:02;99101.72;;;13.78;98.86
41947;BME280;27638;42.184;24.848;2023-04-15T00:19:28;99108.50;;;13.81;98.72
41947;BME280;27638;42.184;24.848;2023-04-15T00:21:54;99096.78;;;13.68;99.10
41947;BME280;27638;42.184;24.848;2023-04-15T00:24:19;99112.59;;;13.83;99.34
41947;BME280;27638;42.184;24.848;2023-04-15T00:26:45;99114.88;;;13.86;98.96
41947;BME280;27638;42.184;24.848;2023-04-15T00:29:11;99117.97;;;13.96;98.74
41947;BME280;27638;42.184;24.848;2023-04-15T00:31:36;99105.13;;;14.13;97.92
41947;BME280;27638;42.184;24.848;2023-04-15T00:34:02;99090.81;;;14.27;96.14
41947;BME280;27638;42.184;24.848;2023-04-15T00:36:28;99105.81;;;14.42;94.71
41947;BME280;27638;42.184;24.848;2023-04-15T00:38:53;99114.81;;;14.41;95.32
41947;BME280;27638;42.184;24.848;2023-04-15T00:41:20;99105.03;;;14.54;94.59
41947;BME280;27638;42.184;24.848;2023-04-15T00:43:47;99099.75;;;14.67;92.75
41947;BME280;27638;42.184;24.848;2023-04-15T00:46:14;99102.00;;;14.64;92.67
41947;BME280;27638;42.184;24.848;2023-04-15T00:48:40;99113.91;;;14.68;92.85
41947;BME280;27638;42.184;24.848;2023-04-15T00:51:06;99110.00;;;14.64;92.99
41947;BME280;27638;42.184;24.848;2023-04-15T00:53:33;99099.56;;;14.76;92.65
41947;BME280;27638;42.184;24.848;2023-04-15T00:55:59;99114.13;;;14.93;91.67
41947;BME280;27638;42.184;24.848;2023-04-15T00:58:25;99097.50;;;14.97;90.81
41947;BME280;27638;42.184;24.848;2023-04-15T01:00:53;99098.53;;;14.96;89.87
41947;BME280;27638;42.184;24.848;2023-04-15T01:03:19;99097.72;;;14.96;89.64
41947;BME280;27638;42.184;24.848;2023-04-15T01:05:45;99093.00;;;14.98;89.46
41947;BME280;27638;42.184;24.848;2023-04-15T01:08:11;99092.16;;;15.04;89.17
41947;BME280;27638;42.184;24.848;2023-04-15T01:10:37;99095.25;;;15.01;88.83
41947;BME280;27638;42.184;24.848;2023-04-15T01:13:03;99096.28;;;14.80;90.32
41947;BME280;27638;42.184;24.848;2023-04-15T01:15:30;99088.06;;;14.82;90.20
41947;BME280;27638;42.184;24.848;2023-04-15T01:17:59;99102.44;;;14.81;90.36
41947;BME280;27638;42.184;24.848;2023-04-15T01:20:25;99106.53;;;14.77;90.81
41947;BME280;27638;42.184;24.848;2023-04-15T01:22:53;99112.28;;;14.74;90.79
41947;BME280;27638;42.184;24.848;2023-04-15T01:25:31;99122.53;;;14.77;90.59
41947;BME280;27638;42.184;24.848;2023-04-15T01:27:59;99115.53;;;14.69;90.92
41947;BME280;27638;42.184;24.848;2023-04-15T01:30:25;99119.44;;;14.66;91.32
41947;BME280;27638;42.184;24.848;2023-04-15T01:32:52;99126.19;;;14.62;91.31
41947;BME280;27638;42.184;24.848;2023-04-15T01:35:18;99131.06;;;14.52;90.97
41947;BME280;27638;42.184;24.848;2023-04-15T01:37:43;99133.13;;;14.50;89.73
41947;BME280;27638;42.184;24.848;2023-04-15T01:40:10;99129.22;;;14.53;88.23
41947;BME280;27638;42.184;24.848;2023-04-15T01:42:35;99130.88;;;14.54;86.66
41947;BME280;27638;42.184;24.848;2023-04-15T01:45:02;99125.13;;;14.50;86.21
41947;BME280;27638;42.184;24.848;2023-04-15T01:47:27;99120.59;;;14.44;85.18
41947;BME280;27638;42.184;24.848;2023-04-15T01:49:53;99119.91;;;14.22;85.82
41947;BME280;27638;42.184;24.848;2023-04-15T01:52:18;99136.69;;;14.23;86.28
41947;BME280;27638;42.184;24.848;2023-04-15T01:54:44;99132.97;;;14.11;86.31
41947;BME280;27638;42.184;24.848;2023-04-15T01:57:10;99141.09;;;13.96;87.00
41947;BME280;27638;42.184;24.848;2023-04-15T01:59:35;99134.75;;;13.90;87.13
41947;BME280;27638;42.184;24.848;2023-04-15T02:02:01;99131.03;;;13.85;86.58
41947;BME280;27638;42.184;24.848;2023-04-15T02:04:27;99141.06;;;13.83;86.69
41947;BME280;27638;42.184;24.848;2023-04-15T02:06:52;99145.69;;;13.67;86.76
41947;BME280;27638;42.184;24.848;2023-04-15T02:09:18;99163.84;;;13.57;86.78
41947;BME280;27638;42.184;24.848;2023-04-15T02:11:44;99161.28;;;13.49;86.26
41947;BME280;27638;42.184;24.848;2023-04-15T02:14:10;99164.72;;;13.43;85.85
41947;BME280;27638;42.184;24.848;2023-04-15T02:16:35;99164.00;;;13.28;85.98
41947;BME280;27638;42.184;24.848;2023-04-15T02:19:01;99167.25;;;13.23;86.65
41947;BME280;27638;42.184;24.848;2023-04-15T02:21:27;99169.47;;;13.20;86.34
41947;BME280;27638;42.184;24.848;2023-04-15T02:23:53;99163.16;;;13.21;85.67
41947;BME280;27638;42.184;24.848;2023-04-15T02:26:19;99163.81;;;13.29;86.00
41947;BME280;27638;42.184;24.848;2023-04-15T02:28:45;99158.78;;;13.41;85.04
41947;BME280;27638;42.184;24.848;2023-04-15T02:31:11;99158.13;;;13.32;85.01
41947;BME280;27638;42.184;24.848;2023-04-15T02:33:36;99154.91;;;13.43;84.86
41947;BME280;27638;42.184;24.848;2023-04-15T02:36:02;99161.91;;;13.51;84.03
41947;BME280;27638;42.184;24.848;2023-04-15T02:38:28;99158.63;;;13.49;83.77
41947;BME280;27638;42.184;24.848;2023-04-15T02:40:55;99160.28;;;13.50;83.55
41947;BME280;27638;42.184;24.848;2023-04-15T02:43:21;99168.59;;;13.68;82.06
41947;BME280;27638;42.184;24.848;2023-04-15T02:45:47;99169.03;;;13.44;82.25
41947;BME280;27638;42.184;24.848;2023-04-15T02:48:13;99166.44;;;13.23;82.97
41947;BME280;27638;42.184;24.848;2023-04-15T02:50:38;99175.81;;;13.19;83.13
41947;BME280;27638;42.184;24.848;2023-04-15T02:53:05;99161.66;;;13.39;82.60
41947;BME280;27638;42.184;24.848;2023-04-15T02:55:31;99167.97;;;13.38;81.98
41947;BME280;27638;42.184;24.848;2023-04-15T02:57:56;99166.19;;;13.18;83.96
41947;BME280;27638;42.184;24.848;2023-04-15T03:00:26;99162.03;;;13.15;84.36
41947;BME280;27638;42.184;24.848;2023-04-15T03:03:03;99167.72;;;13.33;83.15
41947;BME280;27638;42.184;24.848;2023-04-15T03:05:28;99158.75;;;13.34;82.99
41947;BME280;27638;42.184;24.848;2023-04-15T03:07:54;99163.16;;;13.21;82.88
41947;BME280;27638;42.184;24.848;2023-04-15T03:10:20;99163.78;;;13.01;83.20
41947;BME280;27638;42.184;24.848;2023-04-15T03:12:46;99166.56;;;12.93;84.33
41947;BME280;27638;42.184;24.848;2023-04-15T03:15:12;99168.03;;;12.96;83.86
41947;BME280;27638;42.184;24.848;2023-04-15T03:17:37;99166.63;;;13.00;83.43
41947;BME280;27638;42.184;24.848;2023-04-15T03:20:04;99169.66;;;12.97;83.55
41947;BME280;27638;42.184;24.848;2023-04-15T03:22:31;99175.84;;;13.04;83.39
41947;BME280;27638;42.184;24.848;2023-04-15T03:24:57;99177.38;;;13.13;82.61
41947;BME280;27638;42.184;24.848;2023-04-15T03:27:23;99175.72;;;13.12;82.52
41947;BME280;27638;42.184;24.848;2023-04-15T03:29:49;99170.78;;;13.09;81.99
41947;BME280;27638;42.184;24.848;2023-04-15T03:32:14;99174.22;;;13.03;81.53
41947;BME280;27638;42.184;24.848;2023-04-15T03:34:43;99177.63;;;12.97;80.60
41947;BME280;27638;42.184;24.848;2023-04-15T03:37:09;99191.44;;;12.86;80.60
41947;BME280;27638;42.184;24.848;2023-04-15T03:39:34;99203.25;;;12.62;80.67
41947;BME280;27638;42.184;24.848;2023-04-15T03:42:00;99201.59;;;12.61;80.53
41947;BME280;27638;42.184;24.848;2023-04-15T03:44:26;99210.78;;;12.58;79.64
41947;BME280;27638;42.184;24.848;2023-04-15T03:46:52;99219.44;;;12.67;79.77
41947;BME280;27638;42.184;24.848;2023-04-15T03:49:18;99238.50;;;12.70;79.01
41947;BME280;27638;42.184;24.848;2023-04-15T03:51:44;99254.91;;;12.59;79.24
41947;BME280;27638;42.184;24.848;2023-04-15T03:54:10;99252.53;;;12.64;79.25
41947;BME280;27638;42.184;24.848;2023-04-15T03:56:37;99247.50;;;12.55;79.18
41947;BME280;27638;42.184;24.848;2023-04-15T03:59:02;99247.59;;;12.46;80.41
41947;BME280;27638;42.184;24.848;2023-04-15T04:01:28;99241.38;;;12.54;79.96
41947;BME280;27638;42.184;24.848;2023-04-15T04:03:54;99242.72;;;12.65;79.77
41947;BME280;27638;42.184;24.848;2023-04-15T04:06:19;99248.38;;;12.76;79.09
41947;BME280;27638;42.184;24.848;2023-04-15T04:08:45;99255.25;;;12.71;79.37
41947;BME280;27638;42.184;24.848;2023-04-15T04:11:10;99262.22;;;12.72;79.61
41947;BME280;27638;42.184;24.848;2023-04-15T04:13:36;99266.88;;;12.70;79.65
41947;BME280;27638;42.184;24.848;2023-04-15T04:16:01;99257.97;;;12.77;79.24
41947;BME280;27638;42.184;24.848;2023-04-15T04:18:29;99252.03;;;12.75;78.46
41947;BME280;27638;42.184;24.848;2023-04-15T04:20:55;99256.28;;;12.55;78.62
41947;BME280;27638;42.184;24.848;2023-04-15T04:23:21;99258.56;;;12.43;79.30
41947;BME280;27638;42.184;24.848;2023-04-15T04:25:47;99260.41;;;12.43;78.46
41947;BME280;27638;42.184;24.848;2023-04-15T04:28:12;99256.09;;;12.57;78.54
41947;BME280;27638;42.184;24.848;2023-04-15T04:30:38;99256.81;;;12.65;78.36
41947;BME280;27638;42.184;24.848;2023-04-15T04:33:04;99253.88;;;12.75;77.38
41947;BME280;27638;42.184;24.848;2023-04-15T04:35:29;99252.84;;;12.76;76.87
41947;BME280;27638;42.184;24.848;2023-04-15T04:37:55;99262.41;;;12.70;76.28
41947;BME280;27638;42.184;24.848;2023-04-15T04:40:21;99260.50;;;12.64;76.52
41947;BME280;27638;42.184;24.848;2023-04-15T04:42:47;99259.28;;;12.67;76.85
41947;BME280;27638;42.184;24.848;2023-04-15T04:45:12;99266.69;;;12.71;76.39
41947;BME280;27638;42.184;24.848;2023-04-15T04:47:38;99263.78;;;12.66;77.06
41947;BME280;27638;42.184;24.848;2023-04-15T04:50:04;99274.94;;;12.76;75.96
41947;BME280;27638;42.184;24.848;2023-04-15T04:52:29;99282.78;;;12.85;75.49
41947;BME280;27638;42.184;24.848;2023-04-15T04:54:55;99297.66;;;12.79;75.36
41947;BME280;27638;42.184;24.848;2023-04-15T04:57:21;99293.91;;;12.73;76.60
41947;BME280;27638;42.184;24.848;2023-04-15T04:59:46;99288.22;;;12.76;76.07
41947;BME280;27638;42.184;24.848;2023-04-15T05:02:12;99294.25;;;12.85;76.58
41947;BME280;27638;42.184;24.848;2023-04-15T05:04:37;99291.84;;;12.90;75.86
41947;BME280;27638;42.184;24.848;2023-04-15T05:07:03;99300.00;;;12.89;76.04
41947;BME280;27638;42.184;24.848;2023-04-15T05:09:28;99301.66;;;13.11;75.67
41947;BME280;27638;42.184;24.848;2023-04-15T05:11:56;99294.34;;;13.34;73.85
41947;BME280;27638;42.184;24.848;2023-04-15T05:14:22;99290.84;;;13.13;73.81
41947;BME280;27638;42.184;24.848;2023-04-15T05:16:47;99286.81;;;13.17;72.65
41947;BME280;27638;42.184;24.848;2023-04-15T05:19:13;99283.84;;;13.48;72.54
41947;BME280;27638;42.184;24.848;2023-04-15T05:21:39;99281.31;;;13.61;71.42
41947;BME280;27638;42.184;24.848;2023-04-15T05:24:05;99291.00;;;13.68;71.34
41947;BME280;27638;42.184;24.848;2023-04-15T05:26:31;99298.09;;;13.61;71.66
41947;BME280;27638;42.184;24.848;2023-04-15T05:28:56;99289.28;;;13.89;70.60
41947;BME280;27638;42.184;24.848;2023-04-15T05:31:22;99297.94;;;14.32;69.70
41947;BME280;27638;42.184;24.848;2023-04-15T05:33:48;99301.69;;;14.72;68.62
41947;BME280;27638;42.184;24.848;2023-04-15T05:36:13;99293.75;;;14.98;67.59
41947;BME280;27638;42.184;24.848;2023-04-15T05:38:39;99302.22;;;15.15;66.27
41947;BME280;27638;42.184;24.848;2023-04-15T05:41:05;99310.88;;;15.44;65.48
41947;BME280;27638;42.184;24.848;2023-04-15T05:43:30;99315.66;;;15.75;65.63
41947;BME280;27638;42.184;24.848;2023-04-15T05:45:56;99324.28;;;15.90;64.63
41947;BME280;27638;42.184;24.848;2023-04-15T05:48:22;99337.41;;;15.58;66.18
41947;BME280;27638;42.184;24.848;2023-04-15T05:50:47;99347.50;;;15.89;65.46
41947;BME280;27638;42.184;24.848;2023-04-15T05:53:13;99347.50;;;15.63;65.87
41947;BME280;27638;42.184;24.848;2023-04-15T05:55:38;99353.28;;;15.12;67.66
41947;BME280;27638;42.184;24.848;2023-04-15T05:58:04;99354.59;;;15.56;67.69
41947;BME280;27638;42.184;24.848;2023-04-15T06:00:29;99356.94;;;15.79;65.85
41947;BME280;27638;42.184;24.848;2023-04-15T06:02:56;99357.16;;;15.84;66.15
41947;BME280;27638;42.184;24.848;2023-04-15T06:05:23;99357.97;;;15.98;65.06
41947;BME280;27638;42.184;24.848;2023-04-15T06:07:49;99351.59;;;16.12;64.32
41947;BME280;27638;42.184;24.848;2023-04-15T06:10:14;99366.19;;;15.96;65.33
41947;BME280;27638;42.184;24.848;2023-04-15T06:12:40;99365.34;;;15.82;66.09
41947;BME280;27638;42.184;24.848;2023-04-15T06:15:06;99362.22;;;16.38;64.89
41947;BME280;27638;42.184;24.848;2023-04-15T06:17:34;99370.06;;;16.13;64.82
41947;BME280;27638;42.184;24.848;2023-04-15T06:20:00;99369.88;;;15.95;65.61
41947;BME280;27638;42.184;24.848;2023-04-15T06:22:25;99373.97;;;16.11;65.43
41947;BME280;27638;42.184;24.848;2023-04-15T06:24:51;99378.50;;;16.23;65.18
41947;BME280;27638;42.184;24.848;2023-04-15T06:27:17;99379.94;;;16.19;65.58
41947;BME280;27638;42.184;24.848;2023-04-15T06:29:43;99379.88;;;16.52;65.27
41947;BME280;27638;42.184;24.848;2023-04-15T06:32:08;99375.53;;;16.84;63.49
41947;BME280;27638;42.184;24.848;2023-04-15T06:34:35;99379.97;;;17.04;63.65
41947;BME280;27638;42.184;24.848;2023-04-15T06:37:00;99375.22;;;17.44;64.62
41947;BME280;27638;42.184;24.848;2023-04-15T06:39:26;99384.59;;;17.66;63.55
41947;BME280;27638;42.184;24.848;2023-04-15T06:41:51;99377.56;;;17.72;63.83
41947;BME280;27638;42.184;24.848;2023-04-15T06:44:17;99377.41;;;17.92;63.61
41947;BME280;27638;42.184;24.848;2023-04-15T06:46:43;99376.09;;;18.26;62.65
41947;BME280;27638;42.184;24.848;2023-04-15T06:49:09;99382.00;;;18.52;61.05
41947;BME280;27638;42.184;24.848;2023-04-15T06:51:34;99371.81;;;18.43;61.34
41947;BME280;27638;42.184;24.848;2023-04-15T06:54:00;99372.03;;;18.60;60.75
41947;BME280;27638;42.184;24.848;2023-04-15T06:56:26;99376.53;;;18.66;59.84
41947;BME280;27638;42.184;24.848;2023-04-15T06:58:52;99365.72;;;19.09;59.11
41947;BME280;27638;42.184;24.848;2023-04-15T07:01:17;99368.75;;;19.31;56.63
41947;BME280;27638;42.184;24.848;2023-04-15T07:03:43;99360.38;;;19.39;56.22
41947;BME280;27638;42.184;24.848;2023-04-15T07:06:09;99363.75;;;19.76;57.21
41947;BME280;27638;42.184;24.848;2023-04-15T07:08:34;99358.81;;;20.03;55.34
41947;BME280;27638;42.184;24.848;2023-04-15T07:11:00;99366.16;;;20.19;54.22
41947;BME280;27638;42.184;24.848;2023-04-15T07:13:26;99364.66;;;20.35;53.99
41947;BME280;27638;42.184;24.848;2023-04-15T07:15:51;99368.16;;;20.35;52.99
41947;BME280;27638;42.184;24.848;2023-04-15T07:18:17;99368.41;;;20.46;52.58
41947;BME280;27638;42.184;24.848;2023-04-15T07:20:42;99368.38;;;20.81;51.18
41947;BME280;27638;42.184;24.848;2023-04-15T07:23:08;99373.97;;;20.79;51.96
41947;BME280;27638;42.184;24.848;2023-04-15T07:25:33;99378.28;;;21.03;51.68
41947;BME280;27638;42.184;24.848;2023-04-15T07:27:59;99385.34;;;21.21;51.17
41947;BME280;27638;42.184;24.848;2023-04-15T07:30:25;99382.91;;;21.20;50.64
41947;BME280;27638;42.184;24.848;2023-04-15T07:32:50;99381.97;;;21.26;49.76
41947;BME280;27638;42.184;24.848;2023-04-15T07:35:16;99384.53;;;21.32;48.97
41947;BME280;27638;42.184;24.848;2023-04-15T07:37:41;99373.25;;;21.35;48.91
41947;BME280;27638;42.184;24.848;2023-04-15T07:40:08;99380.66;;;20.88;50.39
41947;BME280;27638;42.184;24.848;2023-04-15T07:42:34;99389.69;;;20.82;51.29
41947;BME280;27638;42.184;24.848;2023-04-15T07:45:00;99384.22;;;21.06;50.26
41947;BME280;27638;42.184;24.848;2023-04-15T07:47:25;99381.00;;;21.32;46.11
41947;BME280;27638;42.184;24.848;2023-04-15T07:49:51;99380.66;;;21.28;46.76
41947;BME280;27638;42.184;24.848;2023-04-15T07:52:17;99374.69;;;21.55;46.26
41947;BME280;27638;42.184;24.848;2023-04-15T07:54:44;99368.13;;;21.34;46.59
41947;BME280;27638;42.184;24.848;2023-04-15T07:57:09;99365.03;;;21.42;45.96
41947;BME280;27638;42.184;24.848;2023-04-15T07:59:35;99371.72;;;21.40;44.05
41947;BME280;27638;42.184;24.848;2023-04-15T08:02:01;99377.38;;;21.55;44.13
41947;BME280;27638;42.184;24.848;2023-04-15T08:04:27;99382.38;;;21.63;44.72
41947;BME280;27638;42.184;24.848;2023-04-15T08:06:53;99383.47;;;21.22;48.26
41947;BME280;27638;42.184;24.848;2023-04-15T08:09:19;99390.84;;;20.63;50.48
41947;BME280;27638;42.184;24.848;2023-04-15T08:11:47;99383.69;;;20.80;51.20
41947;BME280;27638;42.184;24.848;2023-04-15T08:14:13;99388.53;;;20.43;50.89
41947;BME280;27638;42.184;24.848;2023-04-15T08:16:39;99393.00;;;19.84;51.21
41947;BME280;27638;42.184;24.848;2023-04-15T08:19:04;99388.97;;;19.63;55.44
41947;BME280;27638;42.184;24.848;2023-04-15T08:21:30;99380.31;;;20.15;52.13
41947;BME280;27638;42.184;24.848;2023-04-15T08:23:56;99380.91;;;20.28;49.58
41947;BME280;27638;42.184;24.848;2023-04-15T08:26:21;99379.28;;;20.39;49.04
41947;BME280;27638;42.184;24.848;2023-04-15T08:28:47;99385.09;;;20.24;49.75
41947;BME280;27638;42.184;24.848;2023-04-15T08:31:14;99379.59;;;19.96;49.33
41947;BME280;27638;42.184;24.848;2023-04-15T08:33:40;99384.63;;;20.04;48.08
41947;BME280;27638;42.184;24.848;2023-04-15T08:36:06;99382.75;;;20.16;50.37
41947;BME280;27638;42.184;24.848;2023-04-15T08:38:32;99372.13;;;19.98;52.17
41947;BME280;27638;42.184;24.848;2023-04-15T08:40:59;99369.44;;;20.09;48.28
41947;BME280;27638;42.184;24.848;2023-04-15T08:43:33;99376.13;;;20.42;47.20
41947;BME280;27638;42.184;24.848;2023-04-15T08:45:59;99362.09;;;20.40;48.76
41947;BME280;27638;42.184;24.848;2023-04-15T08:48:31;99369.78;;;20.36;48.64
41947;BME280;27638;42.184;24.848;2023-04-15T08:50:57;99370.25;;;20.33;48.81
41947;BME280;27638;42.184;24.848;2023-04-15T08:53:24;99362.88;;;19.82;48.79
41947;BME280;27638;42.184;24.848;2023-04-15T08:55:51;99374.56;;;19.88;48.35
41947;BME280;27638;42.184;24.848;2023-04-15T08:58:18;99373.19;;;20.08;47.13
41947;BME280;27638;42.184;24.848;2023-04-15T09:00:44;99377.50;;;19.98;47.05
41947;BME280;27638;42.184;24.848;2023-04-15T09:03:10;99374.44;;;19.83;45.83
41947;BME280;27638;42.184;24.848;2023-04-15T09:05:36;99377.03;;;20.24;45.70
41947;BME280;27638;42.184;24.848;2023-04-15T09:08:03;99368.16;;;20.59;46.58
41947;BME280;27638;42.184;24.848;2023-04-15T09:10:30;99370.50;;;20.55;44.52
41947;BME280;27638;42.184;24.848;2023-04-15T09:12:56;99355.19;;;20.09;47.12
41947;BME280;27638;42.184;24.848;2023-04-15T09:15:24;99359.16;;;20.30;45.29
41947;BME280;27638;42.184;24.848;2023-04-15T09:17:51;99353.34;;;20.45;45.71
41947;BME280;27638;42.184;24.848;2023-04-15T09:20:17;99349.41;;;20.76;44.46
41947;BME280;27638;42.184;24.848;2023-04-15T09:22:45;99354.59;;;20.54;50.64
41947;BME280;27638;42.184;24.848;2023-04-15T09:27:54;99355.34;;;19.72;56.93
41947;BME280;27638;42.184;24.848;2023-04-15T09:30:20;99359.88;;;19.60;56.20
41947;BME280;27638;42.184;24.848;2023-04-15T09:32:50;99361.31;;;19.44;55.89
41947;BME280;27638;42.184;24.848;2023-04-15T09:35:16;99350.97;;;19.00;57.05
41947;BME280;27638;42.184;24.848;2023-04-15T09:37:42;99346.38;;;18.89;57.56
41947;BME280;27638;42.184;24.848;2023-04-15T09:40:07;99343.63;;;18.95;57.59
41947;BME280;27638;42.184;24.848;2023-04-15T09:42:34;99336.94;;;19.16;58.19
41947;BME280;27638;42.184;24.848;2023-04-15T09:45:08;99339.00;;;19.44;56.54
41947;BME280;27638;42.184;24.848;2023-04-15T09:47:35;99329.91;;;19.45;53.88
41947;BME280;27638;42.184;24.848;2023-04-15T09:50:01;99340.81;;;19.20;58.30
41947;BME280;27638;42.184;24.848;2023-04-15T09:52:27;99339.94;;;19.08;58.03
41947;BME280;27638;42.184;24.848;2023-04-15T09:54:54;99339.03;;;19.14;57.35
41947;BME280;27638;42.184;24.848;2023-04-15T09:57:20;99329.56;;;19.41;58.91
41947;BME280;27638;42.184;24.848;2023-04-15T09:59:46;99328.34;;;19.56;57.12
41947;BME280;27638;42.184;24.848;2023-04-15T10:02:12;99325.22;;;19.40;55.29
41947;BME280;27638;42.184;24.848;2023-04-15T10:04:40;99327.69;;;19.42;55.37
41947;BME280;27638;42.184;24.848;2023-04-15T10:07:09;99317.50;;;19.32;57.75
41947;BME280;27638;42.184;24.848;2023-04-15T10:09:37;99329.81;;;19.52;54.35
41947;BME280;27638;42.184;24.848;2023-04-15T10:12:03;99324.00;;;19.25;54.34
41947;BME280;27638;42.184;24.848;2023-04-15T10:14:35;99322.38;;;19.54;52.94
41947;BME280;27638;42.184;24.848;2023-04-15T10:17:04;99314.69;;;19.69;51.49
41947;BME280;27638;42.184;24.848;2023-04-15T10:19:35;99305.72;;;19.75;50.69
41947;BME280;27638;42.184;24.848;2023-04-15T10:22:02;99311.13;;;19.45;52.07
41947;BME280;27638;42.184;24.848;2023-04-15T10:24:27;99308.63;;;19.32;51.82
41947;BME280;27638;42.184;24.848;2023-04-15T10:26:55;99298.97;;;19.42;51.05
41947;BME280;27638;42.184;24.848;2023-04-15T10:29:24;99299.75;;;19.73;51.10
41947;BME280;27638;42.184;24.848;2023-04-15T10:31:52;99287.72;;;19.75;53.87
41947;BME280;27638;42.184;24.848;2023-04-15T10:34:19;99291.41;;;19.51;53.59
41947;BME280;27638;42.184;24.848;2023-04-15T10:36:46;99293.44;;;19.67;53.08
41947;BME280;27638;42.184;24.848;2023-04-15T10:44:31;99270.00;;;19.86;50.77
41947;BME280;27638;42.184;24.848;2023-04-15T10:46:57;99265.06;;;19.71;51.42
41947;BME280;27638;42.184;24.848;2023-04-15T10:49:24;99279.00;;;19.80;49.68
41947;BME280;27638;42.184;24.848;2023-04-15T10:51:52;99277.69;;;19.71;51.13
41947;BME280;27638;42.184;24.848;2023-04-15T10:57:13;99272.22;;;20.01;49.19
41947;BME280;27638;42.184;24.848;2023-04-15T10:59:58;99275.44;;;19.68;46.77
41947;BME280;27638;42.184;24.848;2023-04-15T11:02:41;99262.72;;;19.75;44.12
41947;BME280;27638;42.184;24.848;2023-04-15T11:05:08;99252.00;;;19.98;46.60
41947;BME280;27638;42.184;24.848;2023-04-15T11:07:36;99255.13;;;19.60;47.96
41947;BME280;27638;42.184;24.848;2023-04-15T11:12:58;99265.28;;;19.58;49.58
41947;BME280;27638;42.184;24.848;2023-04-15T11:20:39;99262.91;;;19.50;46.83
41947;BME280;27638;42.184;24.848;2023-04-15T11:23:05;99253.50;;;19.59;45.89
41947;BME280;27638;42.184;24.848;2023-04-15T11:25:32;99251.84;;;19.58;46.60
41947;BME280;27638;42.184;24.848;2023-04-15T11:27:59;99255.63;;;19.81;50.83
41947;BME280;27638;42.184;24.848;2023-04-15T11:30:28;99257.97;;;19.77;44.68
41947;BME280;27638;42.184;24.848;2023-04-15T11:33:00;99251.50;;;19.66;45.92
41947;BME280;27638;42.184;24.848;2023-04-15T11:35:26;99247.00;;;19.79;45.02
41947;BME280;27638;42.184;24.848;2023-04-15T11:37:52;99247.69;;;19.97;44.70
41947;BME280;27638;42.184;24.848;2023-04-15T11:40:24;99250.84;;;19.94;43.04
41947;BME280;27638;42.184;24.848;2023-04-15T11:43:08;99239.03;;;19.95;41.94
41947;BME280;27638;42.184;24.848;2023-04-15T11:45:35;99240.91;;;19.95;42.76
41947;BME280;27638;42.184;24.848;2023-04-15T11:48:08;99232.03;;;20.06;41.64
41947;BME280;27638;42.184;24.848;2023-04-15T11:50:35;99226.88;;;20.04;42.55
41947;BME280;27638;42.184;24.848;2023-04-15T11:53:06;99235.41;;;20.13;42.31
41947;BME280;27638;42.184;24.848;2023-04-15T11:55:47;99232.69;;;20.25;42.85
41947;BME280;27638;42.184;24.848;2023-04-15T12:00:48;99220.09;;;20.14;44.77
41947;BME280;27638;42.184;24.848;2023-04-15T12:03:22;99220.53;;;20.22;44.45
41947;BME280;27638;42.184;24.848;2023-04-15T12:11:30;99213.31;;;20.11;43.10
41947;BME280;27638;42.184;24.848;2023-04-15T12:14:12;99226.28;;;20.02;45.56
41947;BME280;27638;42.184;24.848;2023-04-15T12:16:42;99220.44;;;20.05;46.88
41947;BME280;27638;42.184;24.848;2023-04-15T12:19:12;99208.88;;;20.05;48.08
41947;BME280;27638;42.184;24.848;2023-04-15T12:21:41;99204.22;;;20.00;48.37
41947;BME280;27638;42.184;24.848;2023-04-15T12:24:09;99201.16;;;20.08;49.04
41947;BME280;27638;42.184;24.848;2023-04-15T12:26:45;99202.94;;;20.03;48.91
41947;BME280;27638;42.184;24.848;2023-04-15T12:29:12;99202.59;;;19.88;50.90
41947;BME280;27638;42.184;24.848;2023-04-15T12:31:54;99199.22;;;19.92;46.88
41947;BME280;27638;42.184;24.848;2023-04-15T12:34:31;99200.72;;;20.00;46.16
41947;BME280;27638;42.184;24.848;2023-04-15T12:36:58;99194.84;;;20.15;48.11
41947;BME280;27638;42.184;24.848;2023-04-15T12:39:25;99199.28;;;20.09;45.20
41947;BME280;27638;42.184;24.848;2023-04-15T12:41:52;99197.44;;;19.98;46.30
41947;BME280;27638;42.184;24.848;2023-04-15T12:44:18;99198.03;;;20.00;47.97
41947;BME280;27638;42.184;24.848;2023-04-15T12:46:44;99192.06;;;19.98;47.38
41947;BME280;27638;42.184;24.848;2023-04-15T12:49:11;99196.75;;;20.02;47.30
41947;BME280;27638;42.184;24.848;2023-04-15T12:51:38;99202.56;;;20.11;47.47
41947;BME280;27638;42.184;24.848;2023-04-15T12:54:04;99201.88;;;20.04;49.77
41947;BME280;27638;42.184;24.848;2023-04-15T12:56:29;99199.22;;;19.92;49.29
41947;BME280;27638;42.184;24.848;2023-04-15T12:58:55;99193.81;;;20.04;51.14
41947;BME280;27638;42.184;24.848;2023-04-15T13:01:20;99196.84;;;20.07;50.13
41947;BME280;27638;42.184;24.848;2023-04-15T13:03:46;99198.34;;;20.15;50.60
41947;BME280;27638;42.184;24.848;2023-04-15T13:06:12;99204.06;;;20.19;51.35
41947;BME280;27638;42.184;24.848;2023-04-15T13:08:37;99203.38;;;20.12;49.74
41947;BME280;27638;42.184;24.848;2023-04-15T13:11:03;99209.00;;;19.98;50.64
41947;BME280;27638;42.184;24.848;2023-04-15T13:13:28;99202.94;;;19.91;49.75
41947;BME280;27638;42.184;24.848;2023-04-15T13:15:56;99201.06;;;20.03;51.85